sensor_id;sensor_type;location;lat;lon;timestamp;pressure;altitude;pressure_sealevel;temperature;humidity
57894;BME280;43710;47.460;19.034;2024-01-15T05:02:54;99103.94;;;0.88;86.94
57894;BME280;43710;47.460;19.034;2024-01-15T05:05:58;99103.94;;;0.88;86.94
57894;BME280;43710;47.460;19.034;2024-01-15T05:09:00;99106.28;;;0.41;81.83
57894;BME280;43710;47.460;19.034;2024-01-15T05:12:03;99095.00;;;0.45;87.89
57894;BME280;43710;47.460;19.034;2024-01-15T05:15:06;99101.87;;;0.46;82.05
57894;BME280;43710;47.460;19.034;2024-01-15T05:18:08;99098.50;;;0.51;86.41
57894;BME280;43710;47.460;19.034;2024-01-15T05:21:11;99103.78;;;0.73;80.76
57894;BME280;43710;47.460;19.034;2024-01-15T05:24:14;99116.81;;;0.85;100.00
57894;BME280;43710;47.460;19.034;2024-01-15T05:27:16;99110.38;;;0.76;90.95
57894;BME280;43710;47.460;19.034;2024-01-15T05:30:19;99101.81;;;0.63;80.40
57894;BME280;43710;47.460;19.034;2024-01-15T05:33:25;99103.91;;;0.61;84.43
57894;BME280;43710;47.460;19.034;2024-01-15T05:36:27;99110.22;;;0.60;100.00
57894;BME280;43710;47.460;19.034;2024-01-15T05:39:29;99099.88;;;0.54;91.97
57894;BME280;43710;47.460;19.034;2024-01-15T05:42:32;99087.81;;;0.85;100.00
57894;BME280;43710;47.460;19.034;2024-01-15T05:45:35;99088.47;;;0.97;100.00
57894;BME280;43710;47.460;19.034;2024-01-15T05:48:38;99098.62;;;0.61;85.03
57894;BME280;43710;47.460;19.034;2024-01-15T05:51:41;99113.16;;;0.64;81.68
57894;BME280;43710;47.460;19.034;2024-01-15T05:54:43;99118.44;;;0.42;85.37
57894;BME280;43710;47.460;19.034;2024-01-15T05:57:45;99112.78;;;0.77;100.00
57894;BME280;43710;47.460;19.034;2024-01-15T06:00:48;99107.25;;;0.79;100.00
57894;BME280;43710;47.460;19.034;2024-01-15T06:03:52;99110.03;;;0.45;100.00
57894;BME280;43710;47.460;19.034;2024-01-15T06:06:54;99103.06;;;0.83;100.00
57894;BME280;43710;47.460;19.034;2024-01-15T06:09:57;99100.16;;;0.57;90.08
57894;BME280;43710;47.460;19.034;2024-01-15T06:12:59;99098.94;;;1.14;100.00
57894;BME280;43710;47.460;19.034;2024-01-15T06:16:02;99103.63;;;1.07;100.00
57894;BME280;43710;47.460;19.034;2024-01-15T06:19:07;99098.25;;;0.75;100.00
57894;BME280;43710;47.460;19.034;2024-01-15T06:22:10;99103.22;;;0.71;93.34
57894;BME280;43710;47.460;19.034;2024-01-15T06:25:12;99116.34;;;0.88;100.00
57894;BME280;43710;47.460;19.034;2024-01-15T06:28:15;99112.22;;;0.97;100.00
57894;BME280;43710;47.460;19.034;2024-01-15T06:31:17;99101.16;;;0.73;87.83
57894;BME280;43710;47.460;19.034;2024-01-15T06:34:20;99105.12;;;0.76;94.55
57894;BME280;43710;47.460;19.034;2024-01-15T06:37:22;99100.31;;;0.73;85.70
57894;BME280;43710;47.460;19.034;2024-01-15T06:40:25;99102.97;;;0.73;83.03
57894;BME280;43710;47.460;19.034;2024-01-15T06:43:27;99107.03;;;0.58;83.72
57894;BME280;43710;47.460;19.034;2024-01-15T06:46:29;99106.28;;;0.63;84.52
57894;BME280;43710;47.460;19.034;2024-01-15T06:49:31;99114.00;;;0.69;100.00
57894;BME280;43710;47.460;19.034;2024-01-15T06:52:34;99111.97;;;0.99;100.00
57894;BME280;43710;47.460;19.034;2024-01-15T06:55:37;99110.47;;;1.08;100.00
57894;BME280;43710;47.460;19.034;2024-01-15T06:58:40;99126.59;;;0.84;89.84
57894;BME280;43710;47.460;19.034;2024-01-15T07:01:42;99117.87;;;0.84;100.00
57894;BME280;43710;47.460;19.034;2024-01-15T07:04:45;99112.53;;;0.79;94.66
57894;BME280;43710;47.460;19.034;2024-01-15T07:07:47;99113.28;;;0.74;100.00
57894;BME280;43710;47.460;19.034;2024-01-15T07:10:49;99116.28;;;0.83;100.00
57894;BME280;43710;47.460;19.034;2024-01-15T07:13:52;99121.09;;;0.64;86.36
57894;BME280;43710;47.460;19.034;2024-01-15T07:16:56;99111.75;;;0.78;99.19
57894;BME280;43710;47.460;19.034;2024-01-15T07:19:58;99126.59;;;1.11;100.00
57894;BME280;43710;47.460;19.034;2024-01-15T07:23:01;99127.50;;;0.95;92.94
57894;BME280;43710;47.460;19.034;2024-01-15T07:26:06;99125.53;;;1.07;100.00
57894;BME280;43710;47.460;19.034;2024-01-15T07:29:09;99128.72;;;1.09;94.07
57894;BME280;43710;47.460;19.034;2024-01-15T07:32:11;99136.94;;;1.13;87.51
57894;BME280;43710;47.460;19.034;2024-01-15T07:35:14;99138.03;;;1.17;100.00
57894;BME280;43710;47.460;19.034;2024-01-15T07:38:17;99148.88;;;0.93;88.61
57894;BME280;43710;47.460;19.034;2024-01-15T07:41:21;99138.59;;;0.97;97.77
57894;BME280;43710;47.460;19.034;2024-01-15T07:44:23;99143.94;;;1.02;94.04
57894;BME280;43710;47.460;19.034;2024-01-15T07:47:26;99148.31;;;1.18;100.00
57894;BME280;43710;47.460;19.034;2024-01-15T07:50:30;99142.75;;;1.42;100.00
57894;BME280;43710;47.460;19.034;2024-01-15T07:53:33;99142.50;;;1.16;92.25
57894;BME280;43710;47.460;19.034;2024-01-15T07:56:56;99148.09;;;1.20;100.00
57894;BME280;43710;47.460;19.034;2024-01-15T07:59:59;99148.53;;;2.03;100.00
57894;BME280;43710;47.460;19.034;2024-01-15T08:03:01;99148.47;;;1.61;100.00
57894;BME280;43710;47.460;19.034;2024-01-15T08:06:06;99147.31;;;1.79;100.00
57894;BME280;43710;47.460;19.034;2024-01-15T08:09:15;99150.66;;;1.69;100.00
57894;BME280;43710;47.460;19.034;2024-01-15T08:12:21;99147.00;;;1.75;100.00
57894;BME280;43710;47.460;19.034;2024-01-15T08:15:24;99148.56;;;2.08;100.00
57894;BME280;43710;47.460;19.034;2024-01-15T08:18:32;99154.69;;;1.82;91.98
57894;BME280;43710;47.460;19.034;2024-01-15T08:21:35;99160.53;;;1.79;91.98
57894;BME280;43710;47.460;19.034;2024-01-15T08:24:38;99153.94;;;2.19;100.00
57894;BME280;43710;47.460;19.034;2024-01-15T08:27:41;99147.97;;;1.96;86.10
57894;BME280;43710;47.460;19.034;2024-01-15T08:30:43;99151.25;;;2.14;100.00
57894;BME280;43710;47.460;19.034;2024-01-15T08:33:46;99150.34;;;2.40;97.68
57894;BME280;43710;47.460;19.034;2024-01-15T08:36:49;99159.44;;;2.65;88.24
57894;BME280;43710;47.460;19.034;2024-01-15T08:39:51;99164.69;;;3.27;100.00
57894;BME280;43710;47.460;19.034;2024-01-15T08:42:53;99162.31;;;3.21;100.00
57894;BME280;43710;47.460;19.034;2024-01-15T08:45:56;99153.84;;;3.24;100.00
57894;BME280;43710;47.460;19.034;2024-01-15T08:48:59;99156.81;;;3.48;97.53
57894;BME280;43710;47.460;19.034;2024-01-15T08:52:02;99161.88;;;3.75;86.58
57894;BME280;43710;47.460;19.034;2024-01-15T08:55:04;99164.75;;;3.48;69.41
57894;BME280;43710;47.460;19.034;2024-01-15T08:58:07;99152.56;;;3.57;68.65
57894;BME280;43710;47.460;19.034;2024-01-15T09:01:09;99159.47;;;3.68;75.20
57894;BME280;43710;47.460;19.034;2024-01-15T09:04:11;99152.31;;;3.74;65.64
57894;BME280;43710;47.460;19.034;2024-01-15T09:07:14;99155.22;;;3.83;67.14
57894;BME280;43710;47.460;19.034;2024-01-15T09:10:17;99169.81;;;3.90;65.73
57894;BME280;43710;47.460;19.034;2024-01-15T09:13:19;99172.19;;;4.02;63.85
57894;BME280;43710;47.460;19.034;2024-01-15T09:16:21;99171.38;;;4.07;62.91
57894;BME280;43710;47.460;19.034;2024-01-15T09:19:24;99165.28;;;4.06;61.90
57894;BME280;43710;47.460;19.034;2024-01-15T09:22:26;99165.53;;;4.20;62.59
57894;BME280;43710;47.460;19.034;2024-01-15T09:25:30;99149.09;;;4.23;61.58
57894;BME280;43710;47.460;19.034;2024-01-15T09:28:32;99140.84;;;4.30;61.33
57894;BME280;43710;47.460;19.034;2024-01-15T09:31:35;99136.03;;;4.52;64.59
57894;BME280;43710;47.460;19.034;2024-01-15T09:34:37;99136.56;;;4.49;62.15
57894;BME280;43710;47.460;19.034;2024-01-15T09:37:41;99130.13;;;4.70;72.69
57894;BME280;43710;47.460;19.034;2024-01-15T09:40:55;99140.16;;;4.79;62.04
57894;BME280;43710;47.460;19.034;2024-01-15T09:43:57;99149.66;;;4.95;72.60
57894;BME280;43710;47.460;19.034;2024-01-15T09:47:00;99134.38;;;4.71;58.80
57894;BME280;43710;47.460;19.034;2024-01-15T09:50:03;99121.84;;;4.82;61.56
57894;BME280;43710;47.460;19.034;2024-01-15T09:53:06;99116.78;;;4.86;58.88
57894;BME280;43710;47.460;19.034;2024-01-15T09:56:10;99118.09;;;4.88;57.92
57894;BME280;43710;47.460;19.034;2024-01-15T09:59:16;99102.94;;;4.94;57.73
57894;BME280;43710;47.460;19.034;2024-01-15T10:02:20;99099.97;;;5.01;56.00
57894;BME280;43710;47.460;19.034;2024-01-15T10:05:22;99094.37;;;5.02;56.87
57894;BME280;43710;47.460;19.034;2024-01-15T10:08:25;99099.06;;;5.15;57.91
57894;BME280;43710;47.460;19.034;2024-01-15T10:11:28;99104.06;;;5.27;57.75
57894;BME280;43710;47.460;19.034;2024-01-15T10:14:30;99092.03;;;5.35;56.25
57894;BME280;43710;47.460;19.034;2024-01-15T10:17:33;99090.06;;;5.51;56.34
57894;BME280;43710;47.460;19.034;2024-01-15T10:20:35;99084.19;;;5.54;56.68
57894;BME280;43710;47.460;19.034;2024-01-15T10:23:37;99072.41;;;5.65;59.65
57894;BME280;43710;47.460;19.034;2024-01-15T10:26:40;99073.75;;;5.62;55.33
57894;BME280;43710;47.460;19.034;2024-01-15T10:29:42;99062.19;;;5.77;67.51
57894;BME280;43710;47.460;19.034;2024-01-15T10:32:59;99056.47;;;5.89;57.69
57894;BME280;43710;47.460;19.034;2024-01-15T10:36:09;99050.44;;;6.12;65.77
57894;BME280;43710;47.460;19.034;2024-01-15T10:39:13;99060.91;;;6.04;54.20
57894;BME280;43710;47.460;19.034;2024-01-15T10:42:17;99052.16;;;5.98;53.97
57894;BME280;43710;47.460;19.034;2024-01-15T10:45:20;99052.62;;;5.76;52.18
57894;BME280;43710;47.460;19.034;2024-01-15T10:48:22;99052.88;;;5.80;52.32
57894;BME280;43710;47.460;19.034;2024-01-15T10:51:25;99059.12;;;5.89;53.78
57894;BME280;43710;47.460;19.034;2024-01-15T10:54:29;99060.12;;;5.69;55.06
57894;BME280;43710;47.460;19.034;2024-01-15T10:57:31;99056.09;;;5.77;67.48
57894;BME280;43710;47.460;19.034;2024-01-15T11:00:35;99049.47;;;5.74;55.06
57894;BME280;43710;47.460;19.034;2024-01-15T11:03:39;99049.66;;;5.54;54.92
57894;BME280;43710;47.460;19.034;2024-01-15T11:06:45;99052.84;;;5.51;55.78
57894;BME280;43710;47.460;19.034;2024-01-15T11:09:47;99064.84;;;5.48;54.57
57894;BME280;43710;47.460;19.034;2024-01-15T11:12:50;99045.75;;;5.41;54.65
57894;BME280;43710;47.460;19.034;2024-01-15T11:16:04;99056.28;;;5.56;62.85
57894;BME280;43710;47.460;19.034;2024-01-15T11:19:07;99064.47;;;5.60;55.52
57894;BME280;43710;47.460;19.034;2024-01-15T11:25:35;99056.16;;;5.37;56.08
57894;BME280;43710;47.460;19.034;2024-01-15T11:28:49;99052.94;;;5.40;56.73
57894;BME280;43710;47.460;19.034;2024-01-15T11:34:58;99047.81;;;5.49;56.72
57894;BME280;43710;47.460;19.034;2024-01-15T11:38:03;99035.03;;;5.51;59.26
57894;BME280;43710;47.460;19.034;2024-01-15T11:41:16;99039.50;;;5.56;55.79
57894;BME280;43710;47.460;19.034;2024-01-15T11:44:19;99028.94;;;5.51;55.87
57894;BME280;43710;47.460;19.034;2024-01-15T11:47:44;99036.59;;;5.57;55.17
57894;BME280;43710;47.460;19.034;2024-01-15T11:50:51;99033.97;;;5.52;56.16
57894;BME280;43710;47.460;19.034;2024-01-15T11:53:56;99011.53;;;5.63;55.23
57894;BME280;43710;47.460;19.034;2024-01-15T11:57:09;99019.69;;;5.72;55.84
57894;BME280;43710;47.460;19.034;2024-01-15T12:00:13;98996.84;;;5.71;56.18
57894;BME280;43710;47.460;19.034;2024-01-15T12:03:16;98988.16;;;5.89;55.46
57894;BME280;43710;47.460;19.034;2024-01-15T12:06:18;98994.22;;;5.95;58.47
57894;BME280;43710;47.460;19.034;2024-01-15T12:09:21;98995.28;;;5.94;54.61
57894;BME280;43710;47.460;19.034;2024-01-15T12:15:47;98999.97;;;6.02;54.68
57894;BME280;43710;47.460;19.034;2024-01-15T12:18:50;98990.94;;;6.03;56.62
57894;BME280;43710;47.460;19.034;2024-01-15T12:21:54;98974.94;;;6.27;64.32
57894;BME280;43710;47.460;19.034;2024-01-15T12:24:56;98972.97;;;6.14;55.91
57894;BME280;43710;47.460;19.034;2024-01-15T12:28:00;98968.62;;;6.23;65.52
57894;BME280;43710;47.460;19.034;2024-01-15T12:31:03;98961.06;;;6.30;54.98
57894;BME280;43710;47.460;19.034;2024-01-15T12:34:08;98959.91;;;6.18;55.16
57894;BME280;43710;47.460;19.034;2024-01-15T12:37:11;98946.91;;;6.35;57.05
57894;BME280;43710;47.460;19.034;2024-01-15T12:40:19;98946.84;;;6.40;53.61
57894;BME280;43710;47.460;19.034;2024-01-15T12:43:21;98956.81;;;6.48;53.85
57894;BME280;43710;47.460;19.034;2024-01-15T12:46:24;98959.72;;;6.33;52.96
57894;BME280;43710;47.460;19.034;2024-01-15T12:49:26;98953.66;;;6.27;53.36
57894;BME280;43710;47.460;19.034;2024-01-15T12:52:29;98947.91;;;6.58;58.06
57894;BME280;43710;47.460;19.034;2024-01-15T12:55:32;98943.66;;;6.57;64.85
57894;BME280;43710;47.460;19.034;2024-01-15T12:58:36;98957.84;;;6.52;56.69
57894;BME280;43710;47.460;19.034;2024-01-15T13:01:39;98956.97;;;6.38;56.68
57894;BME280;43710;47.460;19.034;2024-01-15T13:04:42;98950.03;;;6.18;54.16
57894;BME280;43710;47.460;19.034;2024-01-15T13:07:45;98950.63;;;6.34;73.46
57894;BME280;43710;47.460;19.034;2024-01-15T13:10:48;98945.81;;;6.17;53.69
57894;BME280;43710;47.460;19.034;2024-01-15T13:13:50;98952.03;;;6.07;55.01
57894;BME280;43710;47.460;19.034;2024-01-15T13:16:52;98956.41;;;5.98;53.24
57894;BME280;43710;47.460;19.034;2024-01-15T13:19:55;98946.56;;;5.99;64.40
57894;BME280;43710;47.460;19.034;2024-01-15T13:22:58;98948.44;;;5.98;54.10
57894;BME280;43710;47.460;19.034;2024-01-15T13:26:01;98955.41;;;5.94;53.96
57894;BME280;43710;47.460;19.034;2024-01-15T13:29:03;98943.53;;;6.05;55.54
57894;BME280;43710;47.460;19.034;2024-01-15T13:32:06;98948.38;;;6.22;54.15
57894;BME280;43710;47.460;19.034;2024-01-15T13:35:08;98943.94;;;6.18;54.08
57894;BME280;43710;47.460;19.034;2024-01-15T13:38:15;98956.31;;;6.27;52.73
57894;BME280;43710;47.460;19.034;2024-01-15T13:41:17;98964.66;;;6.21;54.72
57894;BME280;43710;47.460;19.034;2024-01-15T13:44:29;98978.53;;;6.18;55.47
57894;BME280;43710;47.460;19.034;2024-01-15T13:47:32;98968.44;;;6.15;53.04
57894;BME280;43710;47.460;19.034;2024-01-15T13:50:35;98973.91;;;6.04;54.42
57894;BME280;43710;47.460;19.034;2024-01-15T13:53:38;98973.84;;;6.09;52.79
57894;BME280;43710;47.460;19.034;2024-01-15T13:56:41;98965.34;;;6.07;53.17
57894;BME280;43710;47.460;19.034;2024-01-15T13:59:43;98961.03;;;6.11;53.19
57894;BME280;43710;47.460;19.034;2024-01-15T14:02:46;98969.09;;;6.06;54.47
57894;BME280;43710;47.460;19.034;2024-01-15T14:05:50;98965.19;;;5.99;54.01
57894;BME280;43710;47.460;19.034;2024-01-15T14:08:53;98961.72;;;5.98;53.47
57894;BME280;43710;47.460;19.034;2024-01-15T14:11:55;98951.16;;;5.93;64.34
57894;BME280;43710;47.460;19.034;2024-01-15T14:14:57;98953.19;;;6.01;54.62
57894;BME280;43710;47.460;19.034;2024-01-15T14:18:00;98949.81;;;5.91;53.62
57894;BME280;43710;47.460;19.034;2024-01-15T14:21:03;98954.97;;;6.06;54.50
57894;BME280;43710;47.460;19.034;2024-01-15T14:24:06;98964.25;;;6.08;53.61
57894;BME280;43710;47.460;19.034;2024-01-15T14:27:09;98976.84;;;6.03;54.78
57894;BME280;43710;47.460;19.034;2024-01-15T14:30:12;98976.44;;;5.91;53.34
57894;BME280;43710;47.460;19.034;2024-01-15T14:33:15;98961.72;;;5.98;55.10
57894;BME280;43710;47.460;19.034;2024-01-15T14:36:18;98974.00;;;5.94;55.08
57894;BME280;43710;47.460;19.034;2024-01-15T14:39:21;98964.94;;;5.95;55.13
57894;BME280;43710;47.460;19.034;2024-01-15T14:42:25;98973.59;;;5.82;55.58
57894;BME280;43710;47.460;19.034;2024-01-15T14:45:28;98967.13;;;5.88;54.19
57894;BME280;43710;47.460;19.034;2024-01-15T14:48:30;98984.66;;;5.94;54.48
57894;BME280;43710;47.460;19.034;2024-01-15T14:51:33;98992.63;;;5.94;54.31
57894;BME280;43710;47.460;19.034;2024-01-15T14:54:36;98995.16;;;5.80;53.82
57894;BME280;43710;47.460;19.034;2024-01-15T14:57:38;98998.88;;;5.79;55.79
57894;BME280;43710;47.460;19.034;2024-01-15T15:00:40;98980.66;;;5.68;53.31
57894;BME280;43710;47.460;19.034;2024-01-15T15:03:43;98973.91;;;5.75;55.47
57894;BME280;43710;47.460;19.034;2024-01-15T15:06:46;98978.03;;;5.62;53.79
57894;BME280;43710;47.460;19.034;2024-01-15T15:09:49;98974.91;;;5.55;55.32
57894;BME280;43710;47.460;19.034;2024-01-15T15:12:53;98971.94;;;5.62;59.36
57894;BME280;43710;47.460;19.034;2024-01-15T15:15:55;98971.03;;;5.72;55.09
57894;BME280;43710;47.460;19.034;2024-01-15T15:18:58;98966.34;;;5.63;53.53
57894;BME280;43710;47.460;19.034;2024-01-15T15:22:00;98967.97;;;5.59;54.87
57894;BME280;43710;47.460;19.034;2024-01-15T15:25:03;98971.47;;;5.55;54.01
57894;BME280;43710;47.460;19.034;2024-01-15T15:28:06;98972.00;;;5.57;58.84
57894;BME280;43710;47.460;19.034;2024-01-15T15:31:08;98975.28;;;5.73;55.29
57894;BME280;43710;47.460;19.034;2024-01-15T15:34:13;98974.56;;;5.67;56.23
57894;BME280;43710;47.460;19.034;2024-01-15T15:37:15;98965.59;;;5.58;62.27
57894;BME280;43710;47.460;19.034;2024-01-15T15:40:19;98968.22;;;5.63;60.81
57894;BME280;43710;47.460;19.034;2024-01-15T15:43:22;98961.47;;;5.71;56.29
57894;BME280;43710;47.460;19.034;2024-01-15T15:46:25;98958.81;;;5.71;57.26
57894;BME280;43710;47.460;19.034;2024-01-15T15:49:27;98966.50;;;5.48;56.50
57894;BME280;43710;47.460;19.034;2024-01-15T15:52:30;98973.78;;;5.37;55.04
57894;BME280;43710;47.460;19.034;2024-01-15T15:55:32;98973.47;;;5.39;56.04
57894;BME280;43710;47.460;19.034;2024-01-15T15:58:38;98984.25;;;5.24;54.07
57894;BME280;43710;47.460;19.034;2024-01-15T16:01:42;98989.19;;;5.35;56.05
57894;BME280;43710;47.460;19.034;2024-01-15T16:04:44;99001.13;;;5.38;56.75
57894;BME280;43710;47.460;19.034;2024-01-15T16:07:47;99004.16;;;5.55;55.07
57894;BME280;43710;47.460;19.034;2024-01-15T16:10:50;99019.22;;;5.65;59.30
57894;BME280;43710;47.460;19.034;2024-01-15T16:13:54;99013.66;;;5.91;69.59
57894;BME280;43710;47.460;19.034;2024-01-15T16:16:56;99014.19;;;5.93;53.73
57894;BME280;43710;47.460;19.034;2024-01-15T16:20:20;99003.50;;;5.98;52.84
57894;BME280;43710;47.460;19.034;2024-01-15T16:23:42;99013.19;;;6.12;59.43
57894;BME280;43710;47.460;19.034;2024-01-15T16:27:05;99014.12;;;5.98;58.73
57894;BME280;43710;47.460;19.034;2024-01-15T16:30:15;99027.31;;;6.08;59.31
57894;BME280;43710;47.460;19.034;2024-01-15T16:33:34;99011.34;;;6.32;61.17
57894;BME280;43710;47.460;19.034;2024-01-15T16:36:36;99021.59;;;5.96;60.13
57894;BME280;43710;47.460;19.034;2024-01-15T16:39:38;99021.88;;;6.18;57.95
57894;BME280;43710;47.460;19.034;2024-01-15T16:42:41;99029.72;;;6.09;67.31
57894;BME280;43710;47.460;19.034;2024-01-15T16:45:43;99043.41;;;5.98;55.42
57894;BME280;43710;47.460;19.034;2024-01-15T16:48:46;99040.44;;;5.99;52.75
